createdAt,value
2023-06-07T00:00:12.689Z,100.00
2023-06-07T00:05:17.050Z,100.00
2023-06-07T00:10:20.072Z,100.00
2023-06-07T00:15:23.061Z,100.00
2023-06-07T00:20:27.612Z,100.00
2023-06-07T00:25:31.365Z,100.00
2023-06-07T00:30:34.401Z,100.00
2023-06-07T00:35:38.658Z,100.00
2023-06-07T00:40:44.697Z,100.00
2023-06-07T00:45:47.633Z,100.00
2023-06-07T00:50:52.897Z,100.00
2023-06-07T00:55:55.951Z,100.00
2023-06-07T01:01:00.461Z,100.00
2023-06-07T01:06:04.848Z,100.00
2023-06-07T01:11:08.914Z,100.00
2023-06-07T01:16:12.660Z,100.00
2023-06-07T01:21:20.268Z,100.00
2023-06-07T01:26:27.956Z,100.00
2023-06-07T01:31:31.021Z,100.00
2023-06-07T01:36:34.040Z,100.00
2023-06-07T01:41:38.570Z,100.00
2023-06-07T01:46:42.499Z,100.00
2023-06-07T01:51:45.638Z,100.00
2023-06-07T01:56:59.040Z,100.00
2023-06-07T02:02:06.430Z,100.00
2023-06-07T02:07:10.874Z,100.00
2023-06-07T02:12:15.671Z,100.00
2023-06-07T02:17:18.700Z,100.00
2023-06-07T02:22:21.860Z,100.00
2023-06-07T02:27:26.306Z,100.00
2023-06-07T02:32:30.465Z,100.00
2023-06-07T02:37:33.624Z,100.00
2023-06-07T02:42:38.143Z,100.00
2023-06-07T02:47:41.441Z,100.00
2023-06-07T02:52:47.095Z,100.00
2023-06-07T02:57:51.919Z,100.00
2023-06-07T03:02:57.723Z,100.00
2023-06-07T03:08:01.358Z,100.00
2023-06-07T03:13:07.986Z,100.00
2023-06-07T03:18:16.615Z,100.00
2023-06-07T03:23:25.095Z,100.00
2023-06-07T03:28:32.204Z,100.00
2023-06-07T03:33:35.801Z,100.00
2023-06-07T03:38:38.916Z,100.00
2023-06-07T03:43:43.602Z,100.00
2023-06-07T03:48:49.139Z,100.00
2023-06-07T03:53:54.138Z,100.00
2023-06-07T03:59:02.865Z,100.00
2023-06-07T04:04:08.141Z,100.00
2023-06-07T04:09:11.155Z,100.00
2023-06-07T04:14:15.527Z,100.00
2023-06-07T04:19:18.951Z,100.00
2023-06-07T04:24:23.062Z,100.00
2023-06-07T04:29:27.991Z,100.00
2023-06-07T04:34:33.128Z,100.00
2023-06-07T04:39:37.595Z,100.00
2023-06-07T04:44:43.698Z,100.00
2023-06-07T04:49:53.310Z,100.00
2023-06-07T04:54:59.393Z,100.00
2023-06-07T05:00:13.161Z,100.00
2023-06-07T05:05:20.505Z,100.00
2023-06-07T05:10:25.026Z,100.00
2023-06-07T05:15:29.839Z,100.00
2023-06-07T05:20:34.014Z,100.00
2023-06-07T05:25:40.073Z,100.00
2023-06-07T05:30:45.064Z,100.00
2023-06-07T05:35:48.608Z,100.00
2023-06-07T05:40:55.116Z,100.00
2023-06-07T05:45:59.577Z,100.00
2023-06-07T05:51:04.055Z,100.00
2023-06-07T05:56:11.315Z,100.00
2023-06-07T06:01:15.946Z,100.00
2023-06-07T06:06:20.212Z,100.00
2023-06-07T06:11:23.530Z,100.00
2023-06-07T06:16:28.330Z,100.00
2023-06-07T06:21:32.477Z,100.00
2023-06-07T06:26:36.635Z,100.00
2023-06-07T06:31:42.238Z,100.00
2023-06-07T06:36:45.205Z,100.00
2023-06-07T06:41:48.171Z,100.00
2023-06-07T06:46:59.141Z,100.00
2023-06-07T06:52:02.185Z,100.00
2023-06-07T06:57:07.025Z,100.00
2023-06-07T07:02:12.271Z,100.00
2023-06-07T07:07:15.608Z,100.00
2023-06-07T07:12:18.884Z,100.00
2023-06-07T07:17:23.319Z,100.00
2023-06-07T07:22:28.863Z,100.00
2023-06-07T07:27:33.088Z,100.00
2023-06-07T07:32:37.432Z,100.00
2023-06-07T07:37:40.847Z,100.00
2023-06-07T07:42:43.968Z,100.00
2023-06-07T07:47:48.288Z,100.00
2023-06-07T07:52:51.423Z,100.00
2023-06-07T07:57:54.354Z,100.00
2023-06-07T08:02:58.895Z,100.00
2023-06-07T08:08:03.835Z,100.00
2023-06-07T08:13:06.813Z,100.00
2023-06-07T08:18:11.287Z,100.00
2023-06-07T08:23:14.565Z,100.00
2023-06-07T08:28:18.011Z,100.00
2023-06-07T08:33:22.348Z,98.28
2023-06-07T08:38:25.209Z,97.18
2023-06-07T08:43:28.292Z,96.48
2023-06-07T08:48:35.450Z,94.06
2023-06-07T08:53:43.888Z,96.22
2023-06-07T08:58:46.973Z,96.85
2023-06-07T09:03:53.825Z,94.65
2023-06-07T09:08:59.424Z,93.30
2023-06-07T09:14:02.733Z,93.44
2023-06-07T09:19:07.395Z,95.22
2023-06-07T09:24:10.415Z,94.23
2023-06-07T09:29:13.430Z,95.85
2023-06-07T09:34:22.987Z,96.13
2023-06-07T09:39:27.584Z,96.38
2023-06-07T09:44:32.426Z,98.89
2023-06-07T09:49:38.682Z,96.15
2023-06-07T09:54:42.881Z,96.88
2023-06-07T09:59:59.465Z,97.89
2023-06-07T10:05:04.134Z,96.94
2023-06-07T10:10:11.158Z,98.89
2023-06-07T10:15:16.712Z,98.89
2023-06-07T10:20:26.869Z,99.33
2023-06-07T10:25:32.484Z,96.99
2023-06-07T10:30:37.267Z,98.34
2023-06-07T10:35:41.833Z,99.41
2023-06-07T10:40:45.315Z,99.32
2023-06-07T10:45:48.326Z,98.06
2023-06-07T10:50:52.934Z,100.00
2023-06-07T10:55:56.472Z,99.19
2023-06-07T11:01:03.751Z,95.96
2023-06-07T11:06:10.149Z,98.08
2023-06-07T11:11:52.694Z,100.00
2023-06-07T11:16:55.804Z,97.81
2023-06-07T11:22:09.377Z,96.63
2023-06-07T11:27:16.055Z,94.20
2023-06-07T11:32:19.260Z,94.17
2023-06-07T11:37:24.001Z,97.85
2023-06-07T11:42:27.290Z,94.79
2023-06-07T11:47:30.364Z,96.28
2023-06-07T11:52:34.848Z,96.49
2023-06-07T11:57:39.423Z,94.36
2023-06-07T12:02:42.870Z,96.20
2023-06-07T12:07:58.506Z,98.10
2023-06-07T12:13:10.633Z,99.45
2023-06-07T12:18:14.763Z,98.57
2023-06-07T12:23:22.892Z,96.73
2023-06-07T12:28:26.905Z,99.17
2023-06-07T12:33:30.317Z,98.25
2023-06-07T12:38:34.779Z,98.29
2023-06-07T12:43:37.846Z,98.83
2023-06-07T12:48:40.943Z,100.00
2023-06-07T12:53:45.763Z,100.00
2023-06-07T12:58:48.846Z,100.00
2023-06-07T13:03:51.948Z,100.00
2023-06-07T13:09:08.432Z,100.00
2023-06-07T13:14:11.681Z,98.25
2023-06-07T13:19:14.633Z,99.84
2023-06-07T13:24:19.629Z,98.19
2023-06-07T13:29:22.677Z,96.96
2023-06-07T13:34:25.701Z,97.78
2023-06-07T13:39:30.150Z,98.25
2023-06-07T13:44:33.394Z,97.46
2023-06-07T13:49:38.909Z,98.61
2023-06-07T13:54:44.179Z,99.41
2023-06-07T13:59:47.561Z,99.59
2023-06-07T14:04:50.940Z,96.31
2023-06-07T14:09:55.363Z,99.37
2023-06-07T14:14:58.460Z,99.67
2023-06-07T14:20:01.559Z,99.91
2023-06-07T14:25:07.614Z,99.15
2023-06-07T14:30:11.528Z,97.66
2023-06-07T14:35:14.744Z,100.00
2023-06-07T14:40:19.991Z,99.49
2023-06-07T14:45:25.814Z,100.00
2023-06-07T14:50:29.063Z,100.00
2023-06-07T14:55:33.567Z,100.00
2023-06-07T15:00:36.998Z,100.00
2023-06-07T15:05:40.104Z,100.00
2023-06-07T15:10:44.389Z,100.00
2023-06-07T15:15:47.536Z,100.00
2023-06-07T15:20:50.711Z,100.00
2023-06-07T15:25:55.055Z,100.00
2023-06-07T15:30:58.140Z,100.00
2023-06-07T15:36:01.094Z,100.00
2023-06-07T15:41:08.125Z,100.00
2023-06-07T15:46:12.242Z,100.00
2023-06-07T15:51:15.384Z,100.00
2023-06-07T15:56:19.781Z,100.00
2023-06-07T16:01:22.980Z,100.00
2023-06-07T16:06:26.014Z,100.00
2023-06-07T16:11:30.523Z,100.00
2023-06-07T16:16:33.573Z,100.00
2023-06-07T16:21:37.450Z,100.00
2023-06-07T16:26:41.703Z,100.00
2023-06-07T16:31:44.578Z,100.00
2023-06-07T16:36:47.638Z,100.00
2023-06-07T16:41:52.163Z,100.00
2023-06-07T16:46:56.667Z,100.00
2023-06-07T16:52:00.144Z,100.00
2023-06-07T16:57:06.264Z,100.00
2023-06-07T17:02:09.341Z,100.00
2023-06-07T17:07:12.461Z,100.00
2023-06-07T17:12:16.744Z,100.00
2023-06-07T17:17:19.773Z,100.00
2023-06-07T17:22:22.908Z,100.00
2023-06-07T17:27:27.307Z,100.00
2023-06-07T17:32:30.334Z,100.00
2023-06-07T17:37:33.245Z,100.00
2023-06-07T17:42:37.562Z,100.00
2023-06-07T17:47:47.701Z,100.00
2023-06-07T17:52:50.910Z,100.00
2023-06-07T17:57:55.356Z,100.00
2023-06-07T18:02:58.507Z,100.00
2023-06-07T18:08:01.668Z,100.00
2023-06-07T18:13:06.321Z,100.00
2023-06-07T18:18:09.397Z,100.00
2023-06-07T18:23:13.460Z,100.00
2023-06-07T18:28:17.883Z,100.00
2023-06-07T18:33:28.679Z,100.00
2023-06-07T18:38:31.761Z,100.00
2023-06-07T18:43:36.112Z,100.00
2023-06-07T18:48:39.043Z,100.00
2023-06-07T18:53:42.160Z,100.00
2023-06-07T18:58:47.025Z,100.00
2023-06-07T19:03:50.313Z,100.00
2023-06-07T19:08:53.410Z,100.00
2023-06-07T19:13:57.834Z,100.00
2023-06-07T19:19:00.870Z,100.00
2023-06-07T19:24:04.565Z,100.00
2023-06-07T19:29:09.085Z,100.00
2023-06-07T19:34:12.075Z,100.00
2023-06-07T19:39:15.109Z,100.00
2023-06-07T19:44:19.460Z,100.00
2023-06-07T19:49:22.637Z,100.00
2023-06-07T19:54:25.756Z,100.00
2023-06-07T19:59:30.052Z,100.00
2023-06-07T20:04:34.169Z,100.00
2023-06-07T20:09:39.816Z,100.00
2023-06-07T20:14:44.210Z,100.00
2023-06-07T20:19:47.335Z,100.00
2023-06-07T20:24:50.592Z,100.00
2023-06-07T20:29:54.907Z,100.00
2023-06-07T20:34:58.902Z,100.00
2023-06-07T20:40:02.401Z,100.00
2023-06-07T20:45:08.377Z,100.00
2023-06-07T20:50:11.651Z,100.00
2023-06-07T20:55:14.627Z,100.00
2023-06-07T21:00:19.997Z,100.00
2023-06-07T21:05:22.980Z,100.00
2023-06-07T21:10:26.137Z,100.00
2023-06-07T21:15:30.502Z,100.00
2023-06-07T21:20:33.508Z,100.00
2023-06-07T21:25:36.420Z,100.00
2023-06-07T21:30:40.715Z,100.00
2023-06-07T21:35:43.591Z,100.00
2023-06-07T21:40:46.517Z,100.00
2023-06-07T21:45:50.937Z,100.00
2023-06-07T21:50:53.803Z,100.00
2023-06-07T21:55:56.720Z,100.00
2023-06-07T22:01:00.992Z,100.00
2023-06-07T22:06:03.976Z,100.00
2023-06-07T22:11:06.850Z,100.00
2023-06-07T22:16:11.208Z,100.00
2023-06-07T22:21:14.717Z,100.00
2023-06-07T22:26:17.516Z,100.00
2023-06-07T22:31:21.717Z,100.00
2023-06-07T22:36:32.680Z,100.00
2023-06-07T22:41:35.846Z,100.00
2023-06-07T22:46:40.158Z,100.00
2023-06-07T22:51:43.568Z,100.00
2023-06-07T22:56:46.467Z,100.00
2023-06-07T23:01:51.063Z,100.00
2023-06-07T23:06:54.134Z,100.00
2023-06-07T23:12:00.241Z,100.00
2023-06-07T23:17:06.211Z,100.00
2023-06-07T23:22:11.420Z,100.00
2023-06-07T23:27:14.279Z,100.00
2023-06-07T23:32:18.602Z,100.00
2023-06-07T23:37:21.470Z,100.00
2023-06-07T23:42:24.358Z,100.00
2023-06-07T23:47:28.806Z,100.00
2023-06-07T23:52:31.802Z,100.00
2023-06-07T23:57:34.701Z,100.00
